createdAt,value
2022-12-20T00:01:58.275Z,26.20
2022-12-20T00:05:01.768Z,26.15
2022-12-20T00:08:05.349Z,25.80
2022-12-20T00:11:10.137Z,24.33
2022-12-20T00:14:13.634Z,24.33
2022-12-20T00:17:16.994Z,29.70
2022-12-20T00:20:20.451Z,24.87
2022-12-20T00:23:23.818Z,26.15
2022-12-20T00:26:30.889Z,23.65
2022-12-20T00:29:35.259Z,21.45
2022-12-20T00:32:38.657Z,26.02
2022-12-20T00:35:44.829Z,22.75
2022-12-20T00:38:49.730Z,26.63
2022-12-20T00:41:53.121Z,22.93
2022-12-20T00:44:56.425Z,22.77
2022-12-20T00:47:59.754Z,25.27
2022-12-20T00:51:15.079Z,22.87
2022-12-20T00:54:18.547Z,25.88
2022-12-20T00:57:21.917Z,21.58
2022-12-20T01:00:25.518Z,23.80
2022-12-20T01:03:29.879Z,26.40
2022-12-20T01:06:34.274Z,25.35
2022-12-20T01:09:37.759Z,26.20
2022-12-20T01:12:41.187Z,27.97
2022-12-20T01:15:44.476Z,25.20
2022-12-20T01:18:49.109Z,26.85
2022-12-20T01:21:54.061Z,28.13
2022-12-20T01:24:57.533Z,27.98
2022-12-20T01:28:00.884Z,26.38
2022-12-20T01:31:12.193Z,27.65
2022-12-20T01:34:15.748Z,24.90
2022-12-20T01:37:19.035Z,24.58
2022-12-20T01:40:22.403Z,27.65
2022-12-20T01:43:45.024Z,24.13
2022-12-20T01:46:50.383Z,21.67
2022-12-20T01:49:56.879Z,25.15
2022-12-20T01:53:02.417Z,26.52
2022-12-20T01:56:07.887Z,26.80
2022-12-20T01:59:13.048Z,26.08
2022-12-20T02:02:17.435Z,28.83
2022-12-20T02:05:23.589Z,28.40
2022-12-20T02:08:27.223Z,27.20
2022-12-20T02:12:20.677Z,29.40
2022-12-20T02:15:52.022Z,24.15
2022-12-20T02:19:19.633Z,24.42
2022-12-20T02:22:31.662Z,28.13
2022-12-20T02:26:29.139Z,22.92
2022-12-20T02:29:45.565Z,23.63
2022-12-20T02:33:07.500Z,27.60
2022-12-20T02:36:10.894Z,22.83
2022-12-20T02:39:17.780Z,28.80
2022-12-20T02:42:26.957Z,29.70
2022-12-20T02:45:36.811Z,25.52
2022-12-20T02:48:42.104Z,28.63
2022-12-20T02:51:49.215Z,30.17
2022-12-20T02:54:54.444Z,28.23
2022-12-20T02:58:10.106Z,25.35
2022-12-20T03:01:22.928Z,27.70
2022-12-20T03:04:29.482Z,25.50
2022-12-20T03:07:34.805Z,24.08
2022-12-20T03:10:38.572Z,24.90
2022-12-20T03:13:42.275Z,27.00
2022-12-20T03:16:46.114Z,23.98
2022-12-20T03:19:49.753Z,24.20
2022-12-20T03:22:53.227Z,24.70
2022-12-20T03:25:56.720Z,29.02
2022-12-20T03:29:32.208Z,30.27
2022-12-20T03:32:36.127Z,26.50
2022-12-20T03:35:39.849Z,27.98
2022-12-20T03:38:43.321Z,24.95
2022-12-20T03:41:46.900Z,27.05
2022-12-20T03:44:54.270Z,28.87
2022-12-20T03:47:59.789Z,26.02
2022-12-20T03:51:06.134Z,29.90
2022-12-20T03:54:09.877Z,26.98
2022-12-20T03:57:31.644Z,25.63
2022-12-20T04:00:36.104Z,28.77
2022-12-20T04:03:59.529Z,27.45
2022-12-20T04:07:04.012Z,31.33
2022-12-20T04:10:09.270Z,24.58
2022-12-20T04:13:12.666Z,30.17
2022-12-20T04:16:18.239Z,25.15
2022-12-20T04:19:22.318Z,23.75
2022-12-20T04:22:26.133Z,30.38
2022-12-20T04:25:36.661Z,28.25
2022-12-20T04:28:40.963Z,28.20
2022-12-20T04:31:47.056Z,25.08
2022-12-20T04:34:51.179Z,28.75
2022-12-20T04:37:55.227Z,30.85
2022-12-20T04:40:59.052Z,29.42
2022-12-20T04:44:06.197Z,29.13
2022-12-20T04:47:12.913Z,28.13
2022-12-20T04:50:19.233Z,24.60
2022-12-20T04:53:42.765Z,30.55
2022-12-20T04:56:47.085Z,31.67
2022-12-20T04:59:56.209Z,30.58
2022-12-20T05:03:00.548Z,29.88
2022-12-20T05:06:04.988Z,26.48
2022-12-20T05:09:09.485Z,29.42
2022-12-20T05:12:13.135Z,26.77
2022-12-20T05:15:16.708Z,27.10
2022-12-20T05:18:21.724Z,24.15
2022-12-20T05:21:52.280Z,25.60
2022-12-20T05:25:14.088Z,28.77
2022-12-20T05:28:18.826Z,27.50
2022-12-20T05:31:22.434Z,28.83
2022-12-20T05:34:26.298Z,30.17
2022-12-20T05:37:31.816Z,24.98
2022-12-20T05:40:42.948Z,26.20
2022-12-20T05:43:48.003Z,29.67
2022-12-20T05:46:51.953Z,25.73
2022-12-20T05:50:02.436Z,28.08
2022-12-20T05:53:12.045Z,26.13
2022-12-20T05:56:22.031Z,26.80
2022-12-20T05:59:25.688Z,28.43
2022-12-20T06:02:29.498Z,33.47
2022-12-20T06:05:39.565Z,29.50
2022-12-20T06:08:43.090Z,27.67
2022-12-20T06:11:52.499Z,27.33
2022-12-20T06:14:55.996Z,31.15
2022-12-20T06:17:59.494Z,31.95
2022-12-20T06:21:03.192Z,27.60
2022-12-20T06:24:07.990Z,30.23
2022-12-20T06:27:14.184Z,30.02
2022-12-20T06:30:19.068Z,29.17
2022-12-20T06:33:35.896Z,26.87
2022-12-20T06:36:40.345Z,29.30
2022-12-20T06:39:46.809Z,30.33
2022-12-20T06:42:51.261Z,30.10
2022-12-20T06:45:57.746Z,33.55
2022-12-20T06:49:01.682Z,31.40
2022-12-20T06:52:05.709Z,32.10
2022-12-20T06:55:18.522Z,27.00
2022-12-20T06:58:23.368Z,30.73
2022-12-20T07:01:28.003Z,29.42
2022-12-20T07:04:32.567Z,29.35
2022-12-20T07:07:42.782Z,29.88
2022-12-20T07:10:50.530Z,32.13
2022-12-20T07:13:59.985Z,29.05
2022-12-20T07:17:04.330Z,28.67
2022-12-20T07:20:13.273Z,35.20
2022-12-20T07:23:19.029Z,29.60
2022-12-20T07:26:22.998Z,26.33
2022-12-20T07:29:26.534Z,31.10
2022-12-20T07:32:30.166Z,27.77
2022-12-20T07:35:33.540Z,30.52
2022-12-20T07:38:37.834Z,27.38
2022-12-20T07:41:41.210Z,29.55
2022-12-20T07:44:51.161Z,30.52
2022-12-20T07:47:57.291Z,33.72
2022-12-20T07:51:07.541Z,30.02
2022-12-20T07:54:16.294Z,28.63
2022-12-20T07:57:25.757Z,27.83
2022-12-20T08:00:30.059Z,23.88
2022-12-20T08:03:41.470Z,28.67
2022-12-20T08:06:45.297Z,28.40
2022-12-20T08:09:51.116Z,27.30
2022-12-20T08:12:55.312Z,26.88
2022-12-20T08:16:01.899Z,26.90
2022-12-20T08:19:05.421Z,29.67
2022-12-20T08:22:08.857Z,24.60
2022-12-20T08:25:12.260Z,34.67
2022-12-20T08:28:15.805Z,24.27
2022-12-20T08:31:29.862Z,25.75
2022-12-20T08:34:34.116Z,26.53
2022-12-20T08:37:37.520Z,27.38
2022-12-20T08:40:43.740Z,33.10
2022-12-20T08:43:47.452Z,24.17
2022-12-20T08:46:51.330Z,28.67
2022-12-20T08:49:54.813Z,30.17
2022-12-20T08:52:58.473Z,26.13
2022-12-20T08:56:11.733Z,29.50
2022-12-20T08:59:17.570Z,27.57
2022-12-20T09:02:24.975Z,28.05
2022-12-20T09:05:28.451Z,24.08
2022-12-20T09:08:31.863Z,27.65
2022-12-20T09:11:37.076Z,30.27
2022-12-20T09:14:41.267Z,27.20
2022-12-20T09:17:45.307Z,30.58
2022-12-20T09:20:49.155Z,27.90
2022-12-20T09:23:54.745Z,25.47
2022-12-20T09:26:58.381Z,26.00
2022-12-20T09:30:02.424Z,24.20
2022-12-20T09:33:10.115Z,23.33
2022-12-20T09:36:17.455Z,26.23
2022-12-20T09:39:21.189Z,23.98
2022-12-20T09:42:29.276Z,23.35
2022-12-20T09:45:37.462Z,24.65
2022-12-20T09:48:42.494Z,26.37
2022-12-20T09:51:58.114Z,30.58
2022-12-20T10:11:55.195Z,21.23
2022-12-20T10:15:21.004Z,23.05
2022-12-20T10:18:54.177Z,22.35
2022-12-20T10:22:05.726Z,23.10
2022-12-20T10:25:35.492Z,23.93
2022-12-20T10:28:41.229Z,18.88
2022-12-20T10:31:44.824Z,22.83
2022-12-20T10:34:57.951Z,25.08
2022-12-20T10:38:12.975Z,20.10
2022-12-20T10:41:22.230Z,20.90
2022-12-20T10:44:28.971Z,22.10
2022-12-20T10:47:43.418Z,16.98
2022-12-20T10:51:17.236Z,19.48
2022-12-20T10:54:28.548Z,21.15
2022-12-20T10:57:33.679Z,21.50
2022-12-20T11:00:43.110Z,22.17
2022-12-20T11:04:03.095Z,16.40
2022-12-20T11:07:26.369Z,18.98
2022-12-20T11:10:31.119Z,18.33
2022-12-20T11:13:34.966Z,18.60
2022-12-20T11:16:40.418Z,16.45
2022-12-20T11:20:08.473Z,17.00
2022-12-20T11:24:08.583Z,20.45
2022-12-20T11:27:34.244Z,17.60
2022-12-20T11:31:06.514Z,18.90
2022-12-20T11:34:35.298Z,20.10
2022-12-20T11:37:57.599Z,19.42
2022-12-20T11:41:33.128Z,18.20
2022-12-20T11:44:58.010Z,19.30
2022-12-20T11:48:38.088Z,17.50
2022-12-20T11:51:47.090Z,17.85
2022-12-20T11:55:04.703Z,17.38
2022-12-20T11:58:34.901Z,19.48
2022-12-20T12:02:16.363Z,16.08
2022-12-20T12:05:26.904Z,16.53
2022-12-20T12:08:54.796Z,19.90
2022-12-20T12:12:25.402Z,16.35
2022-12-20T12:16:05.692Z,18.98
2022-12-20T12:19:15.833Z,15.63
2022-12-20T12:22:30.498Z,16.77
2022-12-20T12:25:34.451Z,19.60
2022-12-20T12:28:38.691Z,19.15
2022-12-20T12:32:10.494Z,15.60
2022-12-20T12:35:42.237Z,20.63
2022-12-20T12:39:02.148Z,17.53
2022-12-20T12:42:22.291Z,18.58
2022-12-20T12:45:53.328Z,18.80
2022-12-20T12:49:12.596Z,19.88
2022-12-20T12:52:52.103Z,21.63
2022-12-20T12:56:12.716Z,18.60
2022-12-20T12:59:22.696Z,19.70
2022-12-20T13:02:34.626Z,20.63
2022-12-20T13:05:38.396Z,24.17
2022-12-20T13:08:58.422Z,22.48
2022-12-20T13:12:45.219Z,27.27
2022-12-20T13:15:51.355Z,26.13
2022-12-20T13:19:04.391Z,22.65
2022-12-20T13:22:17.142Z,25.27
2022-12-20T13:25:30.229Z,22.02
2022-12-20T13:28:33.836Z,20.33
2022-12-20T13:31:37.734Z,23.17
2022-12-20T13:35:04.379Z,20.95
2022-12-20T13:38:32.493Z,22.50
2022-12-20T13:41:47.855Z,23.88
2022-12-20T13:44:53.184Z,21.00
2022-12-20T13:48:10.828Z,19.45
2022-12-20T13:51:27.217Z,19.08
2022-12-20T13:54:30.922Z,25.50
2022-12-20T13:57:43.730Z,27.52
2022-12-20T14:00:50.409Z,21.77
2022-12-20T14:03:55.698Z,23.23
2022-12-20T14:07:02.260Z,28.58
2022-12-20T14:10:21.037Z,29.40
2022-12-20T14:13:28.325Z,20.40
2022-12-20T14:16:33.415Z,28.07
2022-12-20T14:19:37.175Z,32.75
2022-12-20T14:23:12.265Z,28.88
2022-12-20T14:26:25.503Z,25.48
2022-12-20T14:29:31.738Z,29.38
2022-12-20T14:32:35.288Z,34.13
2022-12-20T14:35:52.255Z,37.53
2022-12-20T14:38:55.831Z,36.95
2022-12-20T14:42:08.410Z,43.05
2022-12-20T14:45:14.967Z,36.88
2022-12-20T14:48:18.900Z,31.17
2022-12-20T14:51:23.752Z,77.15
2022-12-20T14:57:57.933Z,82.13
2022-12-20T15:01:22.906Z,95.85
2022-12-20T15:04:34.724Z,66.00
2022-12-20T15:07:41.976Z,97.72
2022-12-20T15:11:03.936Z,105.78
2022-12-20T15:14:38.451Z,93.15
2022-12-20T15:17:44.321Z,99.55
2022-12-20T15:21:01.979Z,99.60
2022-12-20T15:24:10.333Z,71.47
2022-12-20T15:27:15.195Z,56.47
2022-12-20T15:30:19.470Z,56.95
2022-12-20T15:33:31.528Z,57.78
2022-12-20T15:36:35.013Z,44.73
2022-12-20T15:39:38.709Z,40.05
2022-12-20T15:42:43.915Z,61.85
2022-12-20T15:45:50.549Z,61.40
2022-12-20T15:48:54.614Z,29.77
2022-12-20T15:51:58.666Z,33.42
2022-12-20T15:55:02.337Z,32.67
2022-12-20T15:58:05.803Z,73.85
2022-12-20T16:01:16.205Z,52.45
2022-12-20T16:04:20.931Z,38.83
2022-12-20T16:07:24.779Z,36.78
2022-12-20T16:10:30.871Z,57.17
2022-12-20T16:13:35.442Z,44.13
2022-12-20T16:16:38.976Z,35.42
2022-12-20T16:19:43.920Z,34.80
2022-12-20T16:22:47.476Z,60.75
2022-12-20T16:25:51.667Z,65.35
2022-12-20T16:28:56.709Z,58.30
2022-12-20T16:32:00.305Z,43.00
2022-12-20T16:35:04.052Z,51.58
2022-12-20T16:38:07.683Z,46.08
2022-12-20T16:41:19.949Z,43.47
2022-12-20T16:44:23.473Z,46.53
2022-12-20T16:47:27.198Z,62.30
2022-12-20T16:50:33.891Z,46.92
2022-12-20T16:54:02.320Z,44.67
2022-12-20T16:57:01.706Z,44.47
2022-12-20T17:00:06.969Z,44.57
2022-12-20T17:03:10.746Z,47.10
2022-12-20T17:06:15.719Z,46.55
2022-12-20T17:09:20.427Z,46.78
2022-12-20T17:12:24.229Z,53.88
2022-12-20T17:15:30.466Z,47.97
2022-12-20T17:18:34.027Z,39.80
2022-12-20T17:25:03.269Z,42.50
2022-12-20T17:28:06.766Z,50.83
2022-12-20T17:31:27.182Z,48.05
2022-12-20T17:34:31.291Z,45.17
2022-12-20T17:37:35.369Z,43.85
2022-12-20T17:40:38.809Z,49.67
2022-12-20T17:43:42.357Z,48.13
2022-12-20T17:46:46.137Z,78.00
2022-12-20T17:49:49.605Z,132.88
2022-12-20T17:52:54.560Z,91.57
2022-12-20T17:55:58.103Z,51.42
2022-12-20T17:59:02.963Z,58.60
2022-12-20T18:02:22.784Z,54.45
2022-12-20T18:05:26.617Z,56.10
2022-12-20T18:08:30.411Z,54.90
2022-12-20T18:11:33.977Z,52.50
2022-12-20T18:14:37.601Z,49.03
2022-12-20T18:17:41.605Z,66.03
2022-12-20T18:20:45.587Z,59.10
2022-12-20T18:23:49.726Z,58.00
2022-12-20T18:26:53.437Z,54.90
2022-12-20T18:29:56.974Z,59.33
2022-12-20T18:33:00.491Z,81.80
2022-12-20T18:36:11.752Z,78.72
2022-12-20T18:39:15.804Z,59.03
2022-12-20T18:42:19.536Z,80.00
2022-12-20T18:45:23.000Z,73.90
2022-12-20T18:48:26.602Z,63.75
2022-12-20T18:51:33.286Z,53.15
2022-12-20T18:54:36.853Z,71.53
2022-12-20T18:57:40.521Z,66.47
2022-12-20T19:00:44.360Z,76.18
2022-12-20T19:03:48.410Z,68.93
2022-12-20T19:06:52.711Z,65.15
2022-12-20T19:09:56.515Z,61.75
2022-12-20T19:13:05.488Z,58.63
2022-12-20T19:16:13.655Z,59.67
2022-12-20T19:19:17.807Z,47.78
2022-12-20T19:22:21.421Z,54.03
2022-12-20T19:25:24.987Z,59.20
2022-12-20T19:28:28.718Z,55.53
2022-12-20T19:31:34.556Z,54.60
2022-12-20T19:34:38.232Z,49.90
2022-12-20T19:37:41.694Z,47.83
2022-12-20T19:40:53.466Z,49.15
2022-12-20T19:43:57.854Z,47.87
2022-12-20T19:47:07.466Z,49.78
2022-12-20T19:50:11.368Z,42.53
2022-12-20T19:53:15.344Z,47.15
2022-12-20T19:56:22.914Z,52.40
2022-12-20T19:59:26.742Z,63.13
2022-12-20T20:02:30.582Z,55.20
2022-12-20T20:05:35.728Z,62.10
2022-12-20T20:08:39.985Z,59.80
2022-12-20T20:11:43.675Z,61.30
2022-12-20T20:14:47.410Z,71.73
2022-12-20T20:17:51.382Z,88.30
2022-12-20T20:20:55.981Z,116.50
2022-12-20T20:23:59.551Z,108.50
2022-12-20T20:27:03.078Z,70.60
2022-12-20T20:30:07.600Z,55.00
2022-12-20T20:33:12.363Z,44.80
2022-12-20T20:36:20.015Z,51.38
2022-12-20T20:39:23.669Z,45.28
2022-12-20T20:42:27.323Z,55.97
2022-12-20T20:45:30.943Z,62.15
2022-12-20T20:48:35.408Z,50.80
2022-12-20T20:51:38.924Z,54.50
2022-12-20T20:54:42.514Z,43.17
2022-12-20T20:57:46.087Z,43.60
2022-12-20T21:00:52.323Z,45.05
2022-12-20T21:03:57.430Z,55.22
2022-12-20T21:07:00.882Z,61.35
2022-12-20T21:10:05.462Z,81.57
2022-12-20T21:13:09.933Z,64.63
2022-12-20T21:16:20.742Z,59.72
2022-12-20T21:19:24.717Z,69.57
2022-12-20T21:22:28.232Z,69.63
2022-12-20T21:25:32.078Z,59.93
2022-12-20T21:28:36.015Z,54.90
2022-12-20T21:31:39.569Z,57.45
2022-12-20T21:34:43.102Z,68.25
2022-12-20T21:37:46.632Z,73.37
2022-12-20T21:40:50.093Z,45.78
2022-12-20T21:43:57.227Z,119.13
2022-12-20T21:47:00.798Z,59.97
2022-12-20T21:50:05.181Z,52.97
2022-12-20T21:53:12.785Z,43.30
2022-12-20T21:56:20.541Z,46.35
2022-12-20T21:59:24.141Z,50.28
2022-12-20T22:02:28.060Z,44.95
2022-12-20T22:05:31.589Z,43.67
2022-12-20T22:08:35.401Z,43.15
2022-12-20T22:11:39.653Z,51.65
2022-12-20T22:14:43.204Z,44.80
2022-12-20T22:17:46.787Z,48.40
2022-12-20T22:20:50.581Z,48.30
2022-12-20T22:23:55.774Z,52.13
2022-12-20T22:26:59.208Z,47.97
2022-12-20T22:30:02.658Z,52.53
2022-12-20T22:33:06.185Z,45.47
2022-12-20T22:36:11.414Z,45.27
2022-12-20T22:39:15.080Z,41.53
2022-12-20T22:42:19.204Z,46.35
2022-12-20T22:45:22.669Z,42.40
2022-12-20T22:48:26.703Z,43.30
2022-12-20T22:51:33.502Z,47.73
2022-12-20T22:54:37.303Z,41.35
2022-12-20T22:57:40.790Z,52.35
2022-12-20T23:00:44.576Z,46.60
2022-12-20T23:03:48.557Z,47.13
2022-12-20T23:06:52.088Z,46.63
2022-12-20T23:09:56.567Z,47.90
2022-12-20T23:13:18.401Z,53.65
2022-12-20T23:16:47.368Z,58.28
2022-12-20T23:20:09.459Z,55.38
2022-12-20T23:23:12.785Z,54.63
2022-12-20T23:26:17.208Z,53.45
2022-12-20T23:29:20.579Z,53.50
2022-12-20T23:32:24.348Z,60.35
2022-12-20T23:35:27.833Z,53.57
2022-12-20T23:38:33.894Z,56.95
2022-12-20T23:41:37.335Z,62.50
2022-12-20T23:44:40.682Z,61.63
2022-12-20T23:47:44.094Z,55.88
2022-12-20T23:50:56.477Z,59.40
2022-12-20T23:53:59.785Z,53.75
2022-12-20T23:57:03.073Z,66.57
